createdAt,value
2023-04-05T00:00:49.734Z,3.450
2023-04-05T00:01:37.280Z,3.500
2023-04-05T00:02:26.072Z,3.700
2023-04-05T00:03:27.193Z,3.500
2023-04-05T00:04:24.617Z,3.500
2023-04-05T00:05:33.533Z,3.800
2023-04-05T00:06:29.490Z,4.000
2023-04-05T00:07:22.463Z,4.000
2023-04-05T00:08:32.011Z,3.800
2023-04-05T00:09:25.846Z,3.700
2023-04-05T00:10:30.935Z,4.050
2023-04-05T00:11:23.755Z,4.000
2023-04-05T00:12:35.514Z,3.900
2023-04-05T00:13:22.250Z,3.800
2023-04-05T00:14:26.976Z,3.950
2023-04-05T00:15:20.728Z,3.800
2023-04-05T00:16:29.461Z,4.100
2023-04-05T00:17:35.492Z,3.850
2023-04-05T00:18:28.193Z,3.800
2023-04-05T00:19:21.233Z,4.100
2023-04-05T00:20:24.007Z,3.800
2023-04-05T00:21:31.338Z,3.900
2023-04-05T00:22:26.006Z,3.950
2023-04-05T00:23:31.707Z,4.100
2023-04-05T00:24:39.435Z,4.200
2023-04-05T00:25:33.011Z,4.050
2023-04-05T00:26:25.212Z,4.000
2023-04-05T00:27:28.176Z,3.900
2023-04-05T00:28:35.212Z,3.900
2023-04-05T00:29:28.501Z,3.750
2023-04-05T00:30:23.080Z,4.200
2023-04-05T00:31:22.179Z,3.900
2023-04-05T00:32:36.492Z,4.000
2023-04-05T00:33:30.949Z,3.650
2023-04-05T00:34:22.147Z,3.800
2023-04-05T00:35:40.649Z,3.900
2023-04-05T00:36:31.447Z,4.000
2023-04-05T00:37:25.534Z,4.100
2023-04-05T00:38:26.425Z,3.950
2023-04-05T00:39:40.720Z,4.000
2023-04-05T00:40:34.940Z,3.900
2023-04-05T00:41:22.202Z,3.800
2023-04-05T00:42:22.091Z,4.000
2023-04-05T00:43:35.848Z,3.800
2023-04-05T00:44:29.578Z,4.250
2023-04-05T00:45:22.261Z,4.100
2023-04-05T00:46:46.658Z,3.700
2023-04-05T00:47:27.513Z,3.500
2023-04-05T00:48:32.124Z,3.800
2023-04-05T00:49:25.054Z,3.800
2023-04-05T00:50:39.923Z,4.000
2023-04-05T00:51:34.693Z,3.950
2023-04-05T00:52:26.224Z,3.650
2023-04-05T00:53:31.662Z,3.400
2023-04-05T00:54:44.862Z,3.750
2023-04-05T00:55:36.432Z,3.600
2023-04-05T00:56:29.437Z,3.700
2023-04-05T00:57:21.609Z,3.600
2023-04-05T00:58:23.284Z,3.500
2023-04-05T00:59:31.158Z,3.550
2023-04-05T01:00:37.979Z,3.850
2023-04-05T01:01:51.042Z,3.800
2023-04-05T01:08:23.459Z,3.700
2023-04-05T01:09:19.688Z,4.200
2023-04-05T01:10:34.154Z,4.300
2023-04-05T01:15:26.882Z,3.700
2023-04-05T01:16:42.187Z,3.900
2023-04-05T01:17:43.884Z,3.800
2023-04-05T01:18:28.525Z,3.400
2023-04-05T01:20:04.713Z,3.600
2023-04-05T01:20:21.251Z,3.550
2023-04-05T01:21:32.439Z,3.700
2023-04-05T01:22:28.313Z,4.000
2023-04-05T01:23:20.066Z,3.700
2023-04-05T01:24:42.061Z,4.000
2023-04-05T01:25:26.687Z,4.200
2023-04-05T01:26:22.421Z,4.000
2023-04-05T01:27:25.853Z,4.100
2023-04-05T01:28:40.146Z,3.700
2023-04-05T01:29:21.712Z,4.000
2023-04-05T01:30:24.963Z,4.150
2023-04-05T01:31:42.765Z,4.300
2023-04-05T01:32:30.652Z,4.400
2023-04-05T01:33:37.071Z,4.200
2023-04-05T01:34:30.175Z,4.200
2023-04-05T01:35:23.321Z,4.200
2023-04-05T01:36:23.276Z,3.900
2023-04-05T01:37:29.007Z,3.700
2023-04-05T01:38:21.588Z,4.050
2023-04-05T01:39:48.392Z,3.900
2023-04-05T01:40:39.453Z,3.900
2023-04-05T01:41:33.678Z,4.050
2023-04-05T01:42:26.075Z,4.100
2023-04-05T01:43:26.344Z,4.200
2023-04-05T01:44:32.085Z,4.300
2023-04-05T01:45:25.654Z,4.100
2023-04-05T01:46:35.616Z,4.100
2023-04-05T01:47:20.704Z,3.800
2023-04-05T01:48:37.187Z,4.050
2023-04-05T01:49:31.226Z,4.100
2023-04-05T01:50:23.882Z,4.500
2023-04-05T01:51:38.229Z,4.000
2023-04-05T01:52:31.499Z,4.350
2023-04-05T01:53:23.045Z,4.250
2023-04-05T01:54:20.525Z,4.100
2023-04-05T01:55:34.588Z,4.300
2023-04-05T01:56:35.452Z,4.100
2023-04-05T01:57:28.053Z,4.200
2023-04-05T01:58:20.688Z,4.150
2023-04-05T01:59:34.126Z,4.400
2023-04-05T02:00:28.219Z,4.050
2023-04-05T02:01:19.644Z,4.100
2023-04-05T02:02:46.921Z,4.300
2023-04-05T02:03:39.815Z,4.100
2023-04-05T02:04:32.475Z,4.200
2023-04-05T02:05:24.023Z,3.800
2023-04-05T02:06:30.551Z,4.100
2023-04-05T02:07:32.763Z,4.150
2023-04-05T02:08:23.654Z,4.200
2023-04-05T02:09:49.658Z,4.200
2023-04-05T02:10:43.693Z,3.900
2023-04-05T02:11:23.473Z,4.200
2023-04-05T02:12:29.590Z,4.450
2023-04-05T02:13:21.087Z,4.500
2023-04-05T02:14:36.625Z,4.200
2023-04-05T02:15:27.994Z,4.500
2023-04-05T02:16:21.499Z,4.100
2023-04-05T02:18:42.837Z,4.400
2023-04-05T02:19:30.100Z,4.500
2023-04-05T02:20:25.463Z,4.300
2023-04-05T02:21:39.157Z,4.200
2023-04-05T02:22:21.424Z,4.250
2023-04-05T02:23:24.695Z,4.450
2023-04-05T02:24:47.477Z,4.300
2023-04-05T02:25:46.449Z,4.100
2023-04-05T02:26:32.054Z,4.200
2023-04-05T02:27:29.314Z,4.200
2023-04-05T02:28:25.743Z,4.400
2023-04-05T02:29:39.648Z,4.500
2023-04-05T02:30:28.078Z,4.200
2023-04-05T02:31:22.550Z,4.500
2023-04-05T02:32:49.663Z,4.350
2023-04-05T02:33:35.204Z,4.500
2023-04-05T02:34:32.030Z,4.400
2023-04-05T02:35:26.499Z,4.600
2023-04-05T02:36:21.321Z,4.400
2023-04-05T02:37:33.831Z,4.450
2023-04-05T02:38:25.537Z,4.500
2023-04-05T02:39:21.891Z,4.350
2023-04-05T02:40:39.461Z,4.500
2023-04-05T02:41:25.347Z,4.700
2023-04-05T02:42:52.155Z,4.250
2023-04-05T02:43:25.425Z,4.300
2023-04-05T02:44:31.932Z,4.400
2023-04-05T02:45:29.658Z,4.400
2023-04-05T02:46:22.773Z,4.650
2023-04-05T02:47:50.576Z,4.200
2023-04-05T02:48:28.600Z,4.400
2023-04-05T02:49:36.425Z,4.550
2023-04-05T02:50:28.506Z,4.500
2023-04-05T02:51:22.545Z,4.150
2023-04-05T02:52:22.531Z,4.300
2023-04-05T02:53:29.156Z,4.350
2023-04-05T02:54:45.067Z,4.500
2023-04-05T02:55:31.119Z,4.500
2023-04-05T02:56:23.204Z,4.550
2023-04-05T02:57:33.870Z,4.500
2023-04-05T02:58:25.766Z,4.200
2023-04-05T02:59:25.197Z,4.300
2023-04-05T03:00:30.391Z,4.400
2023-04-05T03:01:23.880Z,4.400
2023-04-05T03:02:28.328Z,4.500
2023-04-05T03:03:20.216Z,4.700
2023-04-05T03:04:40.043Z,4.700
2023-04-05T03:05:30.931Z,4.400
2023-04-05T03:06:22.708Z,4.400
2023-04-05T03:07:20.396Z,4.750
2023-04-05T03:08:27.231Z,4.650
2023-04-05T03:09:21.218Z,4.500
2023-04-05T03:10:23.348Z,4.800
2023-04-05T03:11:42.742Z,4.700
2023-04-05T03:12:34.497Z,4.500
2023-04-05T03:13:27.992Z,4.600
2023-04-05T03:14:21.620Z,4.800
2023-04-05T03:15:32.159Z,4.600
2023-04-05T03:16:26.594Z,4.500
2023-04-05T03:17:26.985Z,4.350
2023-04-05T03:18:46.250Z,4.300
2023-04-05T03:19:32.372Z,4.300
2023-04-05T03:20:31.981Z,4.500
2023-04-05T03:21:20.961Z,4.200
2023-04-05T03:22:36.992Z,4.300
2023-04-05T03:23:29.334Z,4.400
2023-04-05T03:24:23.834Z,4.450
2023-04-05T03:25:36.660Z,4.200
2023-04-05T03:26:43.346Z,4.100
2023-04-05T03:27:38.558Z,4.350
2023-04-05T03:28:26.027Z,4.100
2023-04-05T03:29:21.352Z,4.100
2023-04-05T03:30:27.923Z,4.150
2023-04-05T03:31:25.237Z,4.500
2023-04-05T03:34:41.716Z,4.550
2023-04-05T03:35:21.866Z,4.700
2023-04-05T03:36:28.103Z,4.150
2023-04-05T03:37:38.026Z,4.200
2023-04-05T03:38:31.865Z,3.700
2023-04-05T03:39:22.807Z,4.200
2023-04-05T03:40:52.677Z,4.200
2023-04-05T03:41:25.622Z,3.900
2023-04-05T03:42:30.031Z,4.250
2023-04-05T03:43:29.802Z,3.900
2023-04-05T03:44:25.367Z,4.050
2023-04-05T03:45:34.181Z,3.950
2023-04-05T03:46:26.483Z,4.300
2023-04-05T03:47:29.234Z,4.150
2023-04-05T03:48:44.131Z,4.700
2023-04-05T03:49:34.996Z,4.000
2023-04-05T03:50:21.941Z,4.300
2023-04-05T03:51:29.237Z,4.250
2023-04-05T03:52:23.316Z,4.200
2023-04-05T03:53:30.407Z,4.200
2023-04-05T03:54:23.042Z,4.100
2023-04-05T03:55:50.453Z,4.700
2023-04-05T03:56:38.904Z,4.300
2023-04-05T03:57:24.084Z,4.300
2023-04-05T03:58:27.441Z,4.750
2023-04-05T03:59:24.143Z,4.800
2023-04-05T04:00:31.706Z,4.500
2023-04-05T04:01:28.737Z,4.850
2023-04-05T04:02:20.632Z,4.500
2023-04-05T04:03:40.425Z,4.600
2023-04-05T04:04:28.479Z,4.500
2023-04-05T04:05:46.183Z,5.050
2023-04-05T04:06:30.732Z,4.400
2023-04-05T04:07:23.056Z,4.600
2023-04-05T04:08:21.333Z,4.500
2023-04-05T04:09:24.718Z,4.200
2023-04-05T04:10:39.238Z,4.700
2023-04-05T04:11:29.071Z,4.800
2023-04-05T04:12:41.390Z,4.650
2023-04-05T04:13:35.924Z,4.900
2023-04-05T04:14:26.489Z,4.800
2023-04-05T04:15:24.636Z,4.900
2023-04-05T04:16:28.956Z,4.600
2023-04-05T04:17:21.625Z,4.550
2023-04-05T04:18:33.813Z,4.800
2023-04-05T04:19:46.492Z,4.300
2023-04-05T04:20:22.696Z,5.100
2023-04-05T04:21:31.142Z,4.400
2023-04-05T04:22:24.333Z,4.900
2023-04-05T04:23:32.331Z,5.000
2023-04-05T04:24:25.923Z,4.850
2023-04-05T04:25:35.595Z,5.000
2023-04-05T04:26:23.118Z,4.800
2023-04-05T04:27:42.700Z,4.800
2023-04-05T04:28:35.797Z,4.800
2023-04-05T04:29:28.643Z,4.900
2023-04-05T04:30:20.109Z,5.100
2023-04-05T04:31:29.052Z,5.000
2023-04-05T04:32:24.258Z,4.800
2023-04-05T04:33:26.213Z,5.100
2023-04-05T04:34:47.014Z,5.000
2023-04-05T04:35:41.703Z,4.600
2023-04-05T04:36:34.832Z,5.000
2023-04-05T04:37:25.787Z,5.000
2023-04-05T04:38:35.486Z,5.000
2023-04-05T04:39:28.309Z,4.550
2023-04-05T04:40:28.061Z,4.900
2023-04-05T04:41:51.444Z,4.500
2023-04-05T04:42:44.347Z,5.000
2023-04-05T04:43:29.256Z,4.600
2023-04-05T04:44:24.643Z,4.700
2023-04-05T04:45:21.698Z,5.000
2023-04-05T04:46:31.725Z,4.400
2023-04-05T04:47:23.462Z,5.400
2023-04-05T04:48:19.498Z,4.750
2023-04-05T04:49:33.557Z,5.200
2023-04-05T04:50:41.348Z,4.850
2023-04-05T04:51:27.111Z,4.800
2023-04-05T04:52:25.786Z,4.550
2023-04-05T04:53:34.679Z,4.800
2023-04-05T04:54:27.462Z,5.400
2023-04-05T04:55:21.991Z,4.850
2023-04-05T04:56:52.503Z,5.100
2023-04-05T04:57:45.484Z,4.950
2023-04-05T04:58:30.302Z,4.700
2023-04-05T04:59:30.473Z,5.400
2023-04-05T05:00:23.019Z,4.950
2023-04-05T05:01:31.472Z,5.600
2023-04-05T05:02:24.008Z,5.000
2023-04-05T05:03:55.711Z,5.250
2023-04-05T05:04:46.583Z,5.100
2023-04-05T05:05:22.325Z,5.500
2023-04-05T05:06:36.370Z,5.000
2023-04-05T05:07:26.842Z,5.000
2023-04-05T05:08:21.709Z,5.100
2023-04-05T05:09:28.201Z,5.250
2023-04-05T05:11:26.608Z,4.750
2023-04-05T05:12:36.501Z,5.000
2023-04-05T05:13:23.721Z,4.800
2023-04-05T05:14:33.469Z,4.700
2023-04-05T05:15:24.173Z,4.800
2023-04-05T05:16:32.372Z,4.650
2023-04-05T05:17:25.322Z,4.600
2023-04-05T05:18:46.078Z,5.100
2023-04-05T05:19:40.087Z,4.800
2023-04-05T05:20:25.064Z,4.700
2023-04-05T05:21:36.952Z,4.650
2023-04-05T05:22:24.697Z,4.700
2023-04-05T05:23:23.326Z,4.800
2023-04-05T05:24:29.379Z,5.500
2023-04-05T05:25:22.306Z,5.350
2023-04-05T05:26:42.928Z,5.750
2023-04-05T05:27:30.276Z,5.400
2023-04-05T05:28:28.453Z,5.250
2023-04-05T05:29:34.032Z,5.100
2023-04-05T05:30:27.568Z,5.300
2023-04-05T05:31:23.637Z,5.300
2023-04-05T05:32:26.446Z,5.300
2023-04-05T05:33:20.536Z,5.050
2023-04-05T05:34:35.255Z,5.200
2023-04-05T05:35:48.152Z,5.450
2023-04-05T05:36:38.706Z,5.800
2023-04-05T05:37:31.832Z,5.200
2023-04-05T05:38:23.912Z,5.700
2023-04-05T05:39:25.713Z,5.600
2023-04-05T05:40:23.344Z,5.250
2023-04-05T05:41:34.659Z,6.200
2023-04-05T05:42:21.351Z,5.800
2023-04-05T05:43:43.168Z,6.600
2023-04-05T05:44:36.258Z,6.400
2023-04-05T05:45:32.323Z,8.100
2023-04-05T05:46:21.390Z,6.600
2023-04-05T05:47:27.993Z,7.500
2023-04-05T05:48:20.206Z,7.600
2023-04-05T05:49:24.039Z,6.700
2023-04-05T05:50:22.559Z,6.550
2023-04-05T05:51:36.047Z,6.300
2023-04-05T05:52:32.878Z,6.800
2023-04-05T05:53:24.370Z,6.600
2023-04-05T05:54:31.296Z,6.300
2023-04-05T05:55:25.813Z,5.800
2023-04-05T05:56:57.642Z,6.050
2023-04-05T05:57:42.402Z,6.000
2023-04-05T05:58:44.539Z,5.300
2023-04-05T05:59:38.107Z,5.500
2023-04-05T06:00:22.389Z,5.700
2023-04-05T06:01:23.164Z,5.550
2023-04-05T06:02:29.651Z,5.350
2023-04-05T06:03:21.673Z,5.000
2023-04-05T06:04:54.769Z,5.400
2023-04-05T06:05:48.348Z,5.800
2023-04-05T06:06:41.309Z,6.000
2023-04-05T06:07:26.534Z,5.800
2023-04-05T06:08:25.410Z,5.700
2023-04-05T06:09:34.277Z,5.250
2023-04-05T06:10:25.478Z,5.700
2023-04-05T06:11:21.195Z,5.250
2023-04-05T06:12:52.363Z,5.600
2023-04-05T06:13:30.720Z,5.600
2023-04-05T06:14:29.357Z,6.200
2023-04-05T06:15:30.128Z,5.100
2023-04-05T06:16:23.217Z,5.250
2023-04-05T06:17:29.210Z,5.200
2023-04-05T06:18:23.214Z,5.400
2023-04-05T06:19:35.998Z,5.450
2023-04-05T06:20:45.563Z,5.700
2023-04-05T06:21:32.803Z,5.150
2023-04-05T06:22:34.508Z,5.800
2023-04-05T06:23:26.930Z,5.800
2023-04-05T06:24:20.389Z,5.600
2023-04-05T06:25:26.467Z,6.500
2023-04-05T06:27:03.423Z,6.400
2023-04-05T06:27:49.154Z,6.250
2023-04-05T06:28:36.278Z,5.800
2023-04-05T06:29:23.351Z,5.900
2023-04-05T06:30:45.876Z,5.500
2023-04-05T06:31:25.793Z,5.600
2023-04-05T06:32:30.378Z,5.700
2023-04-05T06:33:23.465Z,5.850
2023-04-05T06:35:25.495Z,5.150
2023-04-05T06:36:27.398Z,5.250
2023-04-05T06:37:35.714Z,5.200
2023-04-05T06:38:30.697Z,5.200
2023-04-05T06:39:35.957Z,5.450
2023-04-05T06:40:27.420Z,5.600
2023-04-05T06:41:20.132Z,5.600
2023-04-05T06:42:42.775Z,5.350
2023-04-05T06:43:48.456Z,6.200
2023-04-05T06:44:54.238Z,6.000
2023-04-05T06:45:34.314Z,5.600
2023-04-05T06:46:22.991Z,5.400
2023-04-05T06:47:23.487Z,5.600
2023-04-05T06:48:24.421Z,5.400
2023-04-05T06:49:43.472Z,5.650
2023-04-05T06:50:31.918Z,5.700
2023-04-05T06:51:45.405Z,5.850
2023-04-05T06:52:26.521Z,5.700
2023-04-05T06:53:31.513Z,5.700
2023-04-05T06:54:26.556Z,6.200
2023-04-05T06:55:28.964Z,5.600
2023-04-05T06:56:21.248Z,5.550
2023-04-05T06:57:33.823Z,5.400
2023-04-05T06:58:20.685Z,5.350
2023-04-05T06:59:44.630Z,5.500
2023-04-05T07:00:36.175Z,5.300
2023-04-05T07:01:29.694Z,4.900
2023-04-05T07:02:20.329Z,5.300
2023-04-05T07:03:22.148Z,5.600
2023-04-05T07:04:38.428Z,5.400
2023-04-05T07:05:23.434Z,6.000
2023-04-05T07:06:47.186Z,6.050
2023-04-05T07:07:39.994Z,5.900
2023-04-05T07:08:43.683Z,5.900
2023-04-05T07:09:26.993Z,5.500
2023-04-05T07:10:29.451Z,5.700
2023-04-05T07:11:24.404Z,5.550
2023-04-05T07:12:28.555Z,5.150
2023-04-05T07:13:51.475Z,5.800
2023-04-05T07:14:55.331Z,5.550
2023-04-05T07:15:37.296Z,5.400
2023-04-05T07:16:23.731Z,5.900
2023-04-05T07:17:21.540Z,6.200
2023-04-05T07:18:27.140Z,6.100
2023-04-05T07:19:29.440Z,5.800
2023-04-05T07:20:24.462Z,6.000
2023-04-05T07:21:38.747Z,5.600
2023-04-05T07:22:42.006Z,6.400
2023-04-05T07:23:26.179Z,5.800
2023-04-05T07:24:25.378Z,5.450
2023-04-05T07:25:30.145Z,6.300
2023-04-05T07:26:22.841Z,5.900
2023-04-05T07:27:19.800Z,5.900
2023-04-05T07:28:56.873Z,6.000
2023-04-05T07:29:42.494Z,6.000
2023-04-05T07:30:39.028Z,6.100
2023-04-05T07:31:21.512Z,6.000
2023-04-05T07:32:23.032Z,5.850
2023-04-05T07:33:27.474Z,5.300
2023-04-05T07:34:23.432Z,6.000
2023-04-05T07:35:58.964Z,6.300
2023-04-05T07:36:45.131Z,5.900
2023-04-05T07:37:27.799Z,5.700
2023-04-05T07:38:34.081Z,5.800
2023-04-05T07:39:27.565Z,5.550
2023-04-05T07:40:21.778Z,5.600
2023-04-05T07:41:25.335Z,5.700
2023-04-05T07:43:32.709Z,5.900
2023-04-05T07:44:35.197Z,5.350
2023-04-05T07:45:21.053Z,5.300
2023-04-05T07:46:33.211Z,5.550
2023-04-05T07:47:24.526Z,5.300
2023-04-05T07:48:23.801Z,5.600
2023-04-05T07:49:22.400Z,5.300
2023-04-05T07:50:50.882Z,5.650
2023-04-05T07:51:37.475Z,5.500
2023-04-05T07:52:24.836Z,5.700
2023-04-05T07:53:35.628Z,5.500
2023-04-05T07:54:30.535Z,5.650
2023-04-05T07:55:23.244Z,5.500
2023-04-05T07:56:25.283Z,5.000
2023-04-05T07:57:54.259Z,5.450
2023-04-05T07:58:41.151Z,5.500
2023-04-05T07:59:22.555Z,5.100
2023-04-05T08:00:34.814Z,5.250
2023-04-05T08:01:34.327Z,5.100
2023-04-05T08:02:26.798Z,5.400
2023-04-05T08:03:21.414Z,5.450
2023-04-05T08:05:25.420Z,5.750
2023-04-05T08:06:31.302Z,5.800
2023-04-05T08:07:45.073Z,5.450
2023-04-05T08:08:38.051Z,5.500
2023-04-05T08:09:31.184Z,5.600
2023-04-05T08:10:24.100Z,5.500
2023-04-05T08:11:26.261Z,5.600
2023-04-05T08:12:47.040Z,5.400
2023-04-05T08:13:34.465Z,5.900
2023-04-05T08:14:19.099Z,5.250
2023-04-05T08:15:43.417Z,5.900
2023-04-05T08:16:24.491Z,6.000
2023-04-05T08:17:28.662Z,5.800
2023-04-05T08:18:21.040Z,5.100
2023-04-05T08:19:24.474Z,5.400
2023-04-05T08:20:37.374Z,5.400
2023-04-05T08:21:22.353Z,5.200
2023-04-05T08:22:28.994Z,5.650
2023-04-05T08:23:41.990Z,5.500
2023-04-05T08:24:33.216Z,5.700
2023-04-05T08:25:24.939Z,5.700
2023-04-05T08:26:27.202Z,5.150
2023-04-05T08:27:20.461Z,5.000
2023-04-05T08:28:26.062Z,4.900
2023-04-05T08:29:46.772Z,5.400
2023-04-05T08:30:44.588Z,5.800
2023-04-05T08:31:35.476Z,5.100
2023-04-05T08:32:21.422Z,5.400
2023-04-05T08:33:24.307Z,5.600
2023-04-05T08:34:24.169Z,5.250
2023-04-05T08:35:28.692Z,5.100
2023-04-05T08:36:55.448Z,5.150
2023-04-05T08:37:51.166Z,5.900
2023-04-05T08:38:38.237Z,6.900
2023-04-05T08:39:23.399Z,6.300
2023-04-05T08:40:25.806Z,6.200
2023-04-05T08:41:28.239Z,5.550
2023-04-05T08:42:21.223Z,5.700
2023-04-05T08:43:59.563Z,5.400
2023-04-05T08:44:21.253Z,5.700
2023-04-05T08:45:35.726Z,5.500
2023-04-05T08:46:27.700Z,5.500
2023-04-05T08:47:29.952Z,5.400
2023-04-05T08:48:22.892Z,5.600
2023-04-05T08:49:25.287Z,5.400
2023-04-05T08:50:22.361Z,5.400
2023-04-05T08:51:40.342Z,5.500
2023-04-05T08:52:44.226Z,5.100
2023-04-05T08:53:31.104Z,5.000
2023-04-05T08:54:34.149Z,5.350
2023-04-05T08:55:27.014Z,5.800
2023-04-05T08:56:20.578Z,5.450
2023-04-05T08:57:25.296Z,5.200
2023-04-05T08:59:00.884Z,5.250
2023-04-05T08:59:45.851Z,5.650
2023-04-05T09:00:34.548Z,6.100
2023-04-05T09:01:21.275Z,5.200
2023-04-05T09:02:24.460Z,5.000
2023-04-05T09:03:21.787Z,5.150
2023-04-05T09:04:27.630Z,5.600
2023-04-05T09:05:55.502Z,4.950
2023-04-05T09:06:50.439Z,5.400
2023-04-05T09:07:30.074Z,5.300
2023-04-05T09:08:22.400Z,5.100
2023-04-05T09:09:25.265Z,4.900
2023-04-05T09:10:20.473Z,4.650
2023-04-05T09:11:22.579Z,5.000
2023-04-05T09:12:21.487Z,5.200
2023-04-05T09:13:34.216Z,5.400
2023-04-05T09:14:38.494Z,5.100
2023-04-05T09:15:27.079Z,5.100
2023-04-05T09:16:42.552Z,4.750
2023-04-05T09:17:32.835Z,4.700
2023-04-05T09:18:27.992Z,5.050
2023-04-05T09:19:20.557Z,5.400
2023-04-05T09:20:20.932Z,5.300
2023-04-05T09:21:42.770Z,5.400
2023-04-05T09:22:29.739Z,5.200
2023-04-05T09:23:45.693Z,5.000
2023-04-05T09:24:31.624Z,5.400
2023-04-05T09:25:31.606Z,5.300
2023-04-05T09:26:24.749Z,5.100
2023-04-05T09:27:24.410Z,5.350
2023-04-05T09:28:33.826Z,5.100
2023-04-05T09:29:21.747Z,5.450
2023-04-05T09:30:39.616Z,5.400
2023-04-05T09:31:42.660Z,5.200
2023-04-05T09:32:35.462Z,5.100
2023-04-05T09:33:28.544Z,5.100
2023-04-05T09:34:20.222Z,5.000
2023-04-05T09:35:23.224Z,5.000
2023-04-05T09:36:27.948Z,4.800
2023-04-05T09:37:23.621Z,5.400
2023-04-05T09:38:49.164Z,5.200
2023-04-05T09:39:31.008Z,5.250
2023-04-05T09:40:25.603Z,5.200
2023-04-05T09:41:21.714Z,5.200
2023-04-05T09:42:25.177Z,4.900
2023-04-05T09:43:38.183Z,4.700
2023-04-05T09:44:24.454Z,4.750
2023-04-05T09:45:20.016Z,5.000
2023-04-05T09:46:25.986Z,4.950
2023-04-05T09:47:26.860Z,5.000
2023-04-05T09:48:22.845Z,4.550
2023-04-05T09:49:21.878Z,4.800
2023-04-05T09:50:24.306Z,5.000
2023-04-05T09:51:23.724Z,5.000
2023-04-05T09:52:19.760Z,4.850
2023-04-05T09:53:31.869Z,4.800
2023-04-05T09:54:26.020Z,4.700
2023-04-05T09:55:23.914Z,5.000
2023-04-05T09:56:26.906Z,5.000
2023-04-05T09:57:21.036Z,5.400
2023-04-05T09:58:24.570Z,5.500
2023-04-05T09:59:20.290Z,5.300
2023-04-05T10:00:31.682Z,4.900
2023-04-05T10:01:25.996Z,4.350
2023-04-05T10:02:22.191Z,4.900
2023-04-05T10:03:26.188Z,5.200
2023-04-05T10:04:23.310Z,5.000
2023-04-05T10:05:24.174Z,5.000
2023-04-05T10:06:20.842Z,4.450
2023-04-05T10:07:30.406Z,4.400
2023-04-05T10:08:25.921Z,4.600
2023-04-05T10:09:23.549Z,4.800
2023-04-05T10:10:35.615Z,4.600
2023-04-05T10:11:27.745Z,5.000
2023-04-05T10:12:20.240Z,4.850
2023-04-05T10:13:20.927Z,5.000
2023-04-05T10:14:23.561Z,4.900
2023-04-05T10:15:27.693Z,4.800
2023-04-05T10:16:22.492Z,4.800
2023-04-05T10:17:31.656Z,4.900
2023-04-05T10:18:27.824Z,5.350
2023-04-05T10:19:24.511Z,5.000
2023-04-05T10:20:21.444Z,5.000
2023-04-05T10:21:29.827Z,4.600
2023-04-05T10:22:27.523Z,4.400
2023-04-05T10:23:21.817Z,4.500
2023-04-05T10:24:21.609Z,4.300
2023-04-05T10:25:27.721Z,4.550
2023-04-05T10:26:23.769Z,4.350
2023-04-05T10:27:22.098Z,4.900
2023-04-05T10:28:22.380Z,4.850
2023-04-05T10:29:25.310Z,4.300
2023-04-05T10:30:21.523Z,4.400
2023-04-05T10:31:37.128Z,5.150
2023-04-05T10:32:27.719Z,5.050
2023-04-05T10:33:25.585Z,4.800
2023-04-05T10:34:26.185Z,4.900
2023-04-05T10:35:19.892Z,4.800
2023-04-05T10:36:25.750Z,5.000
2023-04-05T10:37:21.722Z,4.600
2023-04-05T10:38:27.797Z,4.700
2023-04-05T10:39:27.581Z,4.300
2023-04-05T10:40:25.523Z,4.300
2023-04-05T10:41:19.725Z,4.400
2023-04-05T10:42:23.678Z,4.500
2023-04-05T10:43:23.055Z,4.500
2023-04-05T10:44:26.285Z,4.200
2023-04-05T10:45:33.208Z,4.050
2023-04-05T10:46:29.533Z,4.000
2023-04-05T10:47:23.744Z,3.950
2023-04-05T10:48:21.532Z,4.400
2023-04-05T10:49:30.011Z,4.550
2023-04-05T10:50:20.475Z,4.200
2023-04-05T10:51:21.679Z,3.950
2023-04-05T10:52:33.258Z,4.250
2023-04-05T10:53:22.315Z,4.400
2023-04-05T10:54:25.623Z,4.400
2023-04-05T10:55:19.634Z,4.150
2023-04-05T10:56:31.953Z,4.100
2023-04-05T10:57:26.064Z,4.000
2023-04-05T10:58:23.116Z,4.500
2023-04-05T10:59:24.239Z,4.100
2023-04-05T11:00:25.735Z,3.850
2023-04-05T11:01:24.366Z,4.050
2023-04-05T11:02:20.743Z,4.100
2023-04-05T11:03:31.556Z,4.400
2023-04-05T11:04:28.633Z,4.300
2023-04-05T11:05:30.796Z,4.100
2023-04-05T11:06:20.278Z,4.200
2023-04-05T11:07:27.866Z,3.900
2023-04-05T11:08:24.325Z,4.050
2023-04-05T11:09:19.720Z,4.000
2023-04-05T11:10:22.858Z,3.850
2023-04-05T11:11:21.449Z,3.950
2023-04-05T11:12:22.112Z,3.800
2023-04-05T11:13:24.357Z,4.100
2023-04-05T11:14:30.016Z,3.800
2023-04-05T11:15:24.000Z,4.050
2023-04-05T11:16:21.969Z,4.300
2023-04-05T11:17:31.012Z,4.300
2023-04-05T11:18:25.597Z,4.500
2023-04-05T11:19:23.047Z,4.700
2023-04-05T11:20:23.438Z,4.600
2023-04-05T11:21:22.437Z,4.400
2023-04-05T11:22:19.819Z,4.300
2023-04-05T11:23:19.986Z,4.400
2023-04-05T11:24:29.708Z,4.400
2023-04-05T11:25:29.243Z,3.950
2023-04-05T11:26:22.669Z,3.900
2023-04-05T11:27:24.758Z,3.750
2023-04-05T11:28:21.001Z,4.100
2023-04-05T11:29:23.038Z,3.900
2023-04-05T11:30:21.099Z,3.850
2023-04-05T11:31:29.921Z,4.300
2023-04-05T11:32:25.797Z,4.000
2023-04-05T11:33:22.583Z,3.950
2023-04-05T11:34:33.296Z,4.100
2023-04-05T11:35:24.318Z,4.200
2023-04-05T11:36:25.354Z,4.350
2023-04-05T11:37:19.948Z,4.200
2023-04-05T11:38:21.378Z,4.250
2023-04-05T11:39:26.030Z,3.750
2023-04-05T11:40:21.800Z,3.400
2023-04-05T11:41:32.052Z,4.500
2023-04-05T11:42:31.145Z,4.400
2023-04-05T11:43:28.150Z,4.100
2023-04-05T11:44:20.772Z,4.100
2023-04-05T11:45:31.980Z,3.800
2023-04-05T11:46:25.631Z,3.800
2023-04-05T11:47:25.660Z,3.800
2023-04-05T11:48:32.257Z,4.300
2023-04-05T11:49:28.026Z,4.200
2023-04-05T11:50:26.966Z,3.950
2023-04-05T11:51:21.834Z,3.800
2023-04-05T11:52:30.276Z,4.400
2023-04-05T11:53:26.935Z,4.100
2023-04-05T11:54:21.708Z,3.700
2023-04-05T11:55:23.835Z,4.100
2023-04-05T11:56:28.775Z,3.850
2023-04-05T11:57:24.207Z,3.800
2023-04-05T11:58:24.988Z,4.100
2023-04-05T11:59:20.805Z,4.050
2023-04-05T12:00:26.183Z,4.200
2023-04-05T12:01:22.295Z,3.900
2023-04-05T12:02:33.326Z,4.150
2023-04-05T12:03:29.161Z,4.350
2023-04-05T12:04:25.350Z,4.100
2023-04-05T12:05:21.291Z,3.900
2023-04-05T12:06:20.649Z,4.050
2023-04-05T12:07:26.794Z,3.900
2023-04-05T12:08:21.622Z,3.600
2023-04-05T12:09:19.683Z,3.700
2023-04-05T12:10:30.106Z,3.900
2023-04-05T12:11:24.264Z,4.000
2023-04-05T12:12:21.601Z,3.550
2023-04-05T12:13:29.842Z,3.700
2023-04-05T12:14:21.354Z,4.200
2023-04-05T12:15:22.622Z,4.450
2023-04-05T12:16:22.721Z,4.350
2023-04-05T12:17:28.580Z,4.000
2023-04-05T12:18:25.745Z,4.100
2023-04-05T12:19:20.200Z,4.300
2023-04-05T12:20:32.110Z,3.950
2023-04-05T12:21:21.729Z,3.950
2023-04-05T12:22:22.071Z,4.100
2023-04-05T12:23:20.934Z,4.400
2023-04-05T12:24:28.923Z,4.300
2023-04-05T12:25:23.885Z,4.300
2023-04-05T12:26:22.019Z,3.800
2023-04-05T12:27:20.900Z,4.050
2023-04-05T12:28:25.850Z,3.700
2023-04-05T12:29:25.746Z,3.900
2023-04-05T12:30:30.230Z,3.950
2023-04-05T12:31:27.806Z,4.050
2023-04-05T12:32:25.933Z,4.300
2023-04-05T12:33:20.031Z,4.300
2023-04-05T12:34:23.570Z,4.200
2023-04-05T12:35:26.556Z,4.250
2023-04-05T12:36:23.014Z,4.300
2023-04-05T12:37:31.697Z,4.200
2023-04-05T12:38:29.592Z,4.000
2023-04-05T12:39:23.840Z,4.000
2023-04-05T12:40:23.630Z,4.000
2023-04-05T12:41:26.789Z,4.000
2023-04-05T12:42:25.850Z,4.400
2023-04-05T12:43:23.741Z,4.400
2023-04-05T12:44:23.329Z,4.150
2023-04-05T12:45:21.690Z,4.200
2023-04-05T12:46:23.932Z,4.250
2023-04-05T12:47:19.993Z,4.500
2023-04-05T12:48:29.721Z,4.500
2023-04-05T12:49:27.757Z,4.150
2023-04-05T12:50:21.811Z,4.450
2023-04-05T12:51:21.880Z,4.000
2023-04-05T12:52:20.415Z,3.900
2023-04-05T12:53:23.765Z,4.200
2023-04-05T12:54:21.899Z,4.100
2023-04-05T12:55:34.424Z,4.300
2023-04-05T12:56:21.663Z,3.800
2023-04-05T12:57:25.395Z,4.100
2023-04-05T12:58:32.070Z,4.000
2023-04-05T12:59:24.782Z,3.900
2023-04-05T13:00:25.722Z,4.200
2023-04-05T13:01:19.897Z,3.950
2023-04-05T13:02:31.788Z,3.900
2023-04-05T13:03:23.490Z,4.100
2023-04-05T13:04:23.041Z,3.800
2023-04-05T13:05:36.911Z,4.500
2023-04-05T13:06:30.700Z,4.200
2023-04-05T13:07:23.631Z,3.800
2023-04-05T13:08:21.790Z,3.800
2023-04-05T13:09:32.028Z,4.350